createdAt,value
2022-11-14T00:01:12.933Z,102753.81
2022-11-14T00:03:39.688Z,102746.81
2022-11-14T00:06:07.305Z,102738.91
2022-11-14T00:08:34.412Z,102737.19
2022-11-14T00:11:01.012Z,102734.56
2022-11-14T00:13:30.738Z,102727.59
2022-11-14T00:15:57.343Z,102735.53
2022-11-14T00:18:24.269Z,102724.13
2022-11-14T00:20:52.548Z,102717.09
2022-11-14T00:23:20.340Z,102719.75
2022-11-14T00:25:47.276Z,102712.72
2022-11-14T00:28:14.244Z,102708.38
2022-11-14T00:30:41.136Z,102706.63
2022-11-14T00:33:07.718Z,102703.13
2022-11-14T00:35:34.312Z,102701.34
2022-11-14T00:38:03.851Z,102681.13
2022-11-14T00:40:30.412Z,102680.28
2022-11-14T00:42:59.308Z,102676.78
2022-11-14T00:45:25.854Z,102689.06
2022-11-14T00:47:52.554Z,102680.31
2022-11-14T00:50:19.198Z,102683.00
2022-11-14T00:52:45.796Z,102674.19
2022-11-14T00:55:12.345Z,102674.19
2022-11-14T00:57:38.917Z,102684.78
2022-11-14T01:00:06.688Z,102679.50
2022-11-14T01:02:33.331Z,102678.66
2022-11-14T01:05:00.292Z,102668.13
2022-11-14T01:07:27.143Z,102676.94
2022-11-14T01:09:53.747Z,102667.28
2022-11-14T01:12:20.345Z,102661.19
2022-11-14T01:14:47.121Z,102658.56
2022-11-14T01:17:13.885Z,102654.16
2022-11-14T01:19:40.865Z,102655.94
2022-11-14T01:22:08.656Z,102657.69
2022-11-14T01:24:35.344Z,102663.78
2022-11-14T01:27:02.137Z,102655.00
2022-11-14T01:29:29.188Z,102651.47
2022-11-14T01:31:56.367Z,102646.22
2022-11-14T01:34:23.714Z,102635.69
2022-11-14T01:36:50.368Z,102633.06
2022-11-14T01:39:16.959Z,102638.38
2022-11-14T01:41:43.624Z,102626.06
2022-11-14T01:44:18.523Z,102625.22
2022-11-14T01:46:54.673Z,102618.22
2022-11-14T01:49:26.032Z,102615.63
2022-11-14T01:52:11.942Z,102610.38
2022-11-14T01:54:43.492Z,102612.19
2022-11-14T01:57:11.563Z,102598.16
2022-11-14T01:59:44.160Z,102599.91
2022-11-14T02:02:17.412Z,102596.44
2022-11-14T02:04:48.816Z,102591.16
2022-11-14T02:07:15.993Z,102591.16
2022-11-14T02:09:46.144Z,102585.03
2022-11-14T02:12:15.009Z,102578.88
2022-11-14T02:14:45.319Z,102571.00
2022-11-14T02:17:30.910Z,102571.91
2022-11-14T02:20:10.057Z,102558.75
2022-11-14T02:22:37.891Z,102557.91
2022-11-14T02:25:04.883Z,102551.75
2022-11-14T02:27:33.996Z,102549.13
2022-11-14T02:30:10.106Z,102547.38
2022-11-14T02:35:23.253Z,102543.88
2022-11-14T02:37:49.869Z,102544.75
2022-11-14T02:40:16.783Z,102539.47
2022-11-14T02:42:43.380Z,102546.53
2022-11-14T02:45:11.337Z,102543.03
2022-11-14T02:47:38.015Z,102536.00
2022-11-14T02:50:04.925Z,102531.59
2022-11-14T02:52:31.920Z,102530.72
2022-11-14T02:54:58.585Z,102526.38
2022-11-14T02:57:25.127Z,102529.88
2022-11-14T02:59:51.729Z,102523.72
2022-11-14T03:02:20.104Z,102531.66
2022-11-14T03:04:46.701Z,102534.31
2022-11-14T03:07:13.458Z,102534.31
2022-11-14T03:09:40.183Z,102534.31
2022-11-14T03:12:06.917Z,102525.53
2022-11-14T03:14:33.554Z,102527.31
2022-11-14T03:17:00.138Z,102522.94
2022-11-14T03:19:26.731Z,102522.06
2022-11-14T03:21:53.384Z,102512.41
2022-11-14T03:24:20.061Z,102508.88
2022-11-14T03:26:46.684Z,102514.16
2022-11-14T03:29:13.252Z,102511.53
2022-11-14T03:31:39.854Z,102511.50
2022-11-14T03:34:06.423Z,102509.72
2022-11-14T03:36:34.787Z,102512.34
2022-11-14T03:39:01.470Z,102505.28
2022-11-14T03:41:28.015Z,102512.28
2022-11-14T03:43:54.759Z,102514.00
2022-11-14T03:46:21.814Z,102513.09
2022-11-14T03:48:48.347Z,102508.72
2022-11-14T03:51:15.039Z,102496.47
2022-11-14T03:53:41.573Z,102500.00
2022-11-14T03:56:08.130Z,102500.91
2022-11-14T03:58:34.847Z,102500.03
2022-11-14T04:01:01.445Z,102483.38
2022-11-14T04:03:28.133Z,102487.78
2022-11-14T04:05:54.868Z,102498.41
2022-11-14T04:08:21.455Z,102511.59
2022-11-14T04:10:48.852Z,102498.44
2022-11-14T04:13:16.083Z,102507.22
2022-11-14T04:15:42.695Z,102499.34
2022-11-14T04:18:09.235Z,102497.59
2022-11-14T04:20:35.795Z,102500.22
2022-11-14T04:23:02.372Z,102499.34
2022-11-14T04:25:28.915Z,102490.59
2022-11-14T04:27:55.595Z,102494.97
2022-11-14T04:30:22.197Z,102487.97
2022-11-14T04:32:49.258Z,102495.00
2022-11-14T04:35:16.231Z,102489.72
2022-11-14T04:37:42.771Z,102492.38
2022-11-14T04:40:09.824Z,102488.88
2022-11-14T04:42:36.434Z,102491.50
2022-11-14T04:45:03.350Z,102491.50
2022-11-14T04:47:29.943Z,102491.53
2022-11-14T04:49:56.486Z,102488.03
2022-11-14T04:52:23.096Z,102488.03
2022-11-14T04:54:49.673Z,102481.88
2022-11-14T04:57:17.847Z,102478.34
2022-11-14T04:59:44.775Z,102491.56
2022-11-14T05:02:11.816Z,102480.13
2022-11-14T05:04:38.441Z,102478.38
2022-11-14T05:07:05.169Z,102466.97
2022-11-14T05:09:31.768Z,102473.13
2022-11-14T05:11:58.348Z,102474.88
2022-11-14T05:14:24.929Z,102466.09
2022-11-14T05:16:51.498Z,102466.09
2022-11-14T05:19:18.069Z,102457.28
2022-11-14T05:21:44.680Z,102467.84
2022-11-14T05:24:11.243Z,102466.97
2022-11-14T05:26:38.103Z,102477.53
2022-11-14T05:29:04.691Z,102463.47
2022-11-14T05:31:31.245Z,102470.50
2022-11-14T05:33:57.876Z,102468.75
2022-11-14T05:36:24.504Z,102471.41
2022-11-14T05:38:51.121Z,102472.28
2022-11-14T05:41:22.168Z,102468.78
2022-11-14T05:43:48.703Z,102470.53
2022-11-14T05:46:16.515Z,102475.81
2022-11-14T05:48:43.520Z,102477.56
2022-11-14T05:51:12.565Z,102474.94
2022-11-14T05:53:40.057Z,102479.34
2022-11-14T05:56:11.549Z,102473.19
2022-11-14T05:58:38.676Z,102469.69
2022-11-14T06:01:11.981Z,102474.09
2022-11-14T06:03:41.562Z,102471.41
2022-11-14T06:06:11.599Z,102459.97
2022-11-14T06:08:38.831Z,102459.13
2022-11-14T06:11:08.251Z,102465.28
2022-11-14T06:13:35.724Z,102458.25
2022-11-14T06:16:16.601Z,102460.91
2022-11-14T06:18:43.642Z,102455.63
2022-11-14T06:21:32.068Z,102457.41
2022-11-14T06:23:58.769Z,102460.91
2022-11-14T06:26:34.573Z,102455.66
2022-11-14T06:29:01.192Z,102460.91
2022-11-14T06:31:31.141Z,102445.09
2022-11-14T06:33:57.736Z,102448.59
2022-11-14T06:36:26.668Z,102444.22
2022-11-14T06:38:53.376Z,102439.81
2022-11-14T06:41:21.998Z,102433.69
2022-11-14T06:43:54.182Z,102435.44
2022-11-14T06:46:25.716Z,102432.78
2022-11-14T06:48:52.709Z,102437.22
2022-11-14T06:51:19.755Z,102434.56
2022-11-14T06:53:46.706Z,102425.75
2022-11-14T06:56:15.330Z,102425.78
2022-11-14T06:58:44.801Z,102415.22
2022-11-14T07:01:19.605Z,102431.06
2022-11-14T07:03:46.901Z,102416.13
2022-11-14T07:06:17.636Z,102424.94
2022-11-14T07:08:44.224Z,102426.72
2022-11-14T07:11:13.088Z,102424.94
2022-11-14T07:13:39.699Z,102422.31
2022-11-14T07:16:09.087Z,102422.31
2022-11-14T07:18:35.668Z,102417.91
2022-11-14T07:21:05.911Z,102417.06
2022-11-14T07:23:34.300Z,102410.03
2022-11-14T07:26:04.660Z,102425.84
2022-11-14T07:28:32.222Z,102422.34
2022-11-14T07:30:59.086Z,102420.59
2022-11-14T07:33:25.653Z,102420.59
2022-11-14T07:35:52.196Z,102420.59
2022-11-14T07:38:21.640Z,102414.44
2022-11-14T07:41:00.418Z,102410.03
2022-11-14T07:43:28.413Z,102415.31
2022-11-14T07:45:59.974Z,102410.91
2022-11-14T07:48:30.224Z,102407.41
2022-11-14T07:51:09.264Z,102407.41
2022-11-14T07:53:36.173Z,102407.44
2022-11-14T07:56:09.761Z,102401.25
2022-11-14T07:58:40.552Z,102403.00
2022-11-14T08:01:11.180Z,102410.97
2022-11-14T08:03:42.275Z,102398.59
2022-11-14T08:06:14.633Z,102405.66
2022-11-14T08:08:41.594Z,102408.31
2022-11-14T08:11:08.650Z,102410.09
2022-11-14T08:13:35.549Z,102401.28
2022-11-14T08:16:12.276Z,102396.88
2022-11-14T08:18:42.507Z,102396.88
2022-11-14T08:21:09.221Z,102397.78
2022-11-14T08:23:35.898Z,102389.84
2022-11-14T08:26:02.703Z,102400.41
2022-11-14T08:28:29.576Z,102396.88
2022-11-14T08:31:01.917Z,102392.50
2022-11-14T08:33:28.594Z,102392.50
2022-11-14T08:35:57.283Z,102378.41
2022-11-14T08:38:23.905Z,102388.97
2022-11-14T08:40:50.488Z,102391.63
2022-11-14T08:43:20.311Z,102395.16
2022-11-14T08:45:46.912Z,102389.00
2022-11-14T08:48:13.503Z,102388.09
2022-11-14T08:50:40.180Z,102377.53
2022-11-14T08:53:06.814Z,102387.22
2022-11-14T08:55:36.209Z,102381.97
2022-11-14T08:58:02.789Z,102382.84
2022-11-14T09:00:33.544Z,102381.94
2022-11-14T09:03:03.028Z,102379.31
2022-11-14T09:05:29.694Z,102373.16
2022-11-14T09:07:59.173Z,102371.38
2022-11-14T09:10:25.837Z,102368.72
2022-11-14T09:12:59.396Z,102361.69
2022-11-14T09:15:27.760Z,102361.69
2022-11-14T09:17:55.723Z,102360.81
2022-11-14T09:20:32.263Z,102355.53
2022-11-14T09:23:01.242Z,102344.94
2022-11-14T09:25:29.365Z,102344.94
2022-11-14T09:27:56.571Z,102341.44
2022-11-14T09:30:23.828Z,102344.94
2022-11-14T09:32:51.171Z,102344.94
2022-11-14T09:35:18.024Z,102335.25
2022-11-14T09:37:44.652Z,102338.75
2022-11-14T09:40:13.472Z,102334.38
2022-11-14T09:43:25.179Z,102335.25
2022-11-14T09:45:53.634Z,102337.00
2022-11-14T09:48:25.929Z,102333.47
2022-11-14T09:51:09.704Z,102329.94
2022-11-14T09:53:44.476Z,102334.34
2022-11-14T09:56:15.308Z,102327.31
2022-11-14T09:58:42.966Z,102327.28
2022-11-14T10:01:26.847Z,102329.06
2022-11-14T10:04:13.984Z,102320.25
2022-11-14T10:06:53.875Z,102321.13
2022-11-14T10:09:35.127Z,102323.75
2022-11-14T10:12:13.061Z,102320.25
2022-11-14T10:15:01.645Z,102319.38
2022-11-14T10:17:44.986Z,102320.25
2022-11-14T10:20:40.997Z,102318.47
2022-11-14T10:23:17.778Z,102315.84
2022-11-14T10:26:23.311Z,102299.97
2022-11-14T10:29:14.561Z,102301.75
2022-11-14T10:32:25.434Z,102294.69
2022-11-14T10:34:59.287Z,102297.34
2022-11-14T10:37:41.881Z,102292.06
2022-11-14T10:40:20.975Z,102294.72
2022-11-14T10:42:51.599Z,102287.66
2022-11-14T10:45:26.149Z,102275.34
2022-11-14T10:48:16.972Z,102278.84
2022-11-14T10:50:52.596Z,102284.16
2022-11-14T10:53:28.577Z,102270.06
2022-11-14T10:56:05.113Z,102267.41
2022-11-14T10:58:42.019Z,102269.19
2022-11-14T11:01:36.337Z,102271.81
2022-11-14T11:04:36.943Z,102262.09
2022-11-14T11:07:09.603Z,102255.94
2022-11-14T11:09:57.561Z,102262.09
2022-11-14T11:12:38.993Z,102261.25
2022-11-14T11:15:17.697Z,102249.75
2022-11-14T11:17:55.677Z,102248.91
2022-11-14T11:20:41.249Z,102248.91
2022-11-14T11:23:10.728Z,102251.53
2022-11-14T11:25:41.572Z,102243.59
2022-11-14T11:28:26.213Z,102237.44
2022-11-14T11:31:01.184Z,102240.97
2022-11-14T11:33:30.965Z,102232.16
2022-11-14T11:36:01.773Z,102231.25
2022-11-14T11:38:30.888Z,102230.38
2022-11-14T11:44:16.965Z,102214.53
2022-11-14T11:46:55.844Z,102219.81
2022-11-14T11:49:44.079Z,102210.97
2022-11-14T11:52:35.906Z,102217.16
2022-11-14T11:55:05.874Z,102211.88
2022-11-14T11:57:36.908Z,102210.09
2022-11-14T12:00:17.853Z,102204.81
2022-11-14T12:02:50.650Z,102203.06
2022-11-14T12:05:25.699Z,102200.41
2022-11-14T12:08:09.209Z,102202.19
2022-11-14T12:10:41.990Z,102208.34
2022-11-14T12:13:32.632Z,102210.97
2022-11-14T12:16:15.186Z,102196.03
2022-11-14T12:18:54.469Z,102191.59
2022-11-14T12:21:58.453Z,102189.84
2022-11-14T12:24:51.047Z,102190.72
2022-11-14T12:27:43.731Z,102189.88
2022-11-14T12:30:24.129Z,102188.97
2022-11-14T12:32:53.498Z,102181.06
2022-11-14T12:35:25.402Z,102182.78
2022-11-14T12:37:55.990Z,102179.28
2022-11-14T12:40:33.582Z,102179.28
2022-11-14T12:43:02.297Z,102175.72
2022-11-14T12:45:40.898Z,102165.16
2022-11-14T12:48:25.620Z,102170.44
2022-11-14T12:50:54.054Z,102157.22
2022-11-14T12:53:38.548Z,102155.47
2022-11-14T12:56:30.514Z,102158.09
2022-11-14T12:59:06.192Z,102156.31
2022-11-14T13:01:51.374Z,102159.84
2022-11-14T13:04:39.881Z,102150.19
2022-11-14T13:07:15.680Z,102151.06
2022-11-14T13:09:54.765Z,102136.09
2022-11-14T13:12:48.985Z,102137.88
2022-11-14T13:15:48.888Z,102134.38
2022-11-14T13:18:44.540Z,102131.72
2022-11-14T13:21:42.259Z,102126.44
2022-11-14T13:24:17.314Z,102121.16
2022-11-14T13:26:45.015Z,102130.81
2022-11-14T13:29:37.587Z,102130.81
2022-11-14T13:32:04.457Z,102122.00
2022-11-14T13:34:54.535Z,102122.88
2022-11-14T13:37:51.486Z,102114.09
2022-11-14T13:40:33.218Z,102112.31
2022-11-14T13:43:16.851Z,102111.44
2022-11-14T13:45:49.645Z,102107.03
2022-11-14T13:48:24.455Z,102104.38
2022-11-14T13:50:56.494Z,102107.91
2022-11-14T13:53:28.285Z,102104.41
2022-11-14T13:56:07.212Z,102104.41
2022-11-14T13:58:55.061Z,102105.28
2022-11-14T14:01:30.576Z,102099.16
2022-11-14T14:04:05.860Z,102100.00
2022-11-14T14:06:42.361Z,102100.91
2022-11-14T14:09:50.680Z,102097.38
2022-11-14T14:12:57.501Z,102092.09
2022-11-14T14:15:42.316Z,102094.75
2022-11-14T14:18:31.920Z,102086.81
2022-11-14T14:21:03.885Z,102086.78
2022-11-14T14:24:09.508Z,102092.06
2022-11-14T14:27:02.448Z,102084.13
2022-11-14T14:29:48.788Z,102078.88
2022-11-14T14:32:19.963Z,102076.19
2022-11-14T14:34:46.752Z,102077.09
2022-11-14T14:37:21.897Z,102076.19
2022-11-14T14:40:06.313Z,102078.00
2022-11-14T14:42:46.579Z,102078.00
2022-11-14T14:45:20.140Z,102075.34
2022-11-14T14:47:58.898Z,102070.97
2022-11-14T14:50:40.661Z,102078.00
2022-11-14T14:53:08.270Z,102078.88
2022-11-14T14:55:36.250Z,102079.78
2022-11-14T14:58:27.820Z,102065.66
2022-11-14T15:01:01.623Z,102065.66
2022-11-14T15:03:36.950Z,102062.16
2022-11-14T15:06:17.828Z,102063.06
2022-11-14T15:08:45.964Z,102057.78
2022-11-14T15:11:14.741Z,102060.44
2022-11-14T15:13:42.708Z,102054.25
2022-11-14T15:16:10.825Z,102051.63
2022-11-14T15:18:38.263Z,102050.72
2022-11-14T15:21:09.463Z,102049.88
2022-11-14T15:23:38.814Z,102043.69
2022-11-14T15:26:16.503Z,102044.56
2022-11-14T15:28:43.972Z,102041.91
2022-11-14T15:31:20.243Z,102035.75
2022-11-14T15:34:01.296Z,102029.56
2022-11-14T15:36:28.309Z,102027.84
2022-11-14T15:39:04.037Z,102024.28
2022-11-14T15:41:32.801Z,102022.53
2022-11-14T15:44:02.198Z,102026.94
2022-11-14T15:46:42.327Z,102024.31
2022-11-14T15:49:14.638Z,102025.22
2022-11-14T15:51:45.956Z,102013.75
2022-11-14T15:54:21.844Z,102006.66
2022-11-14T15:56:48.499Z,102012.84
2022-11-14T15:59:15.185Z,102005.78
2022-11-14T16:01:44.222Z,102008.44
2022-11-14T16:04:16.110Z,102004.03
2022-11-14T16:06:42.766Z,101993.47
2022-11-14T16:09:14.938Z,101992.63
2022-11-14T16:11:41.484Z,101992.63
2022-11-14T16:14:08.158Z,101995.25
2022-11-14T16:16:34.718Z,101997.03
2022-11-14T16:19:01.733Z,101986.44
2022-11-14T16:21:28.298Z,101989.13
2022-11-14T16:23:55.030Z,101981.22
2022-11-14T16:26:22.079Z,101990.91
2022-11-14T16:28:48.632Z,101990.03
2022-11-14T16:31:15.592Z,101983.88
2022-11-14T16:33:42.146Z,101984.75
2022-11-14T16:36:11.711Z,101982.13
2022-11-14T16:38:38.611Z,101985.59
2022-11-14T16:41:09.948Z,101976.81
2022-11-14T16:43:36.500Z,101981.22
2022-11-14T16:46:07.510Z,101975.03
2022-11-14T16:48:34.160Z,101967.13
2022-11-14T16:51:14.916Z,101964.50
2022-11-14T16:53:47.013Z,101967.13
2022-11-14T16:56:13.782Z,101957.47
2022-11-14T16:58:41.975Z,101955.69
2022-11-14T17:01:20.092Z,101955.69
2022-11-14T17:03:47.908Z,101956.53
2022-11-14T17:06:14.614Z,101955.66
2022-11-14T17:08:41.189Z,101951.22
2022-11-14T17:11:10.351Z,101949.47
2022-11-14T17:13:37.886Z,101948.56
2022-11-14T17:16:05.296Z,101933.59
2022-11-14T17:18:38.153Z,101945.94
2022-11-14T17:21:06.659Z,101943.28
2022-11-14T17:23:33.557Z,101950.31
2022-11-14T17:26:08.082Z,101940.59
2022-11-14T17:28:34.913Z,101940.59
2022-11-14T17:31:07.761Z,101935.31
2022-11-14T17:33:34.765Z,101933.50
2022-11-14T17:36:06.146Z,101941.44
2022-11-14T17:38:34.378Z,101929.09
2022-11-14T17:41:01.140Z,101933.47
2022-11-14T17:43:34.335Z,101930.84
2022-11-14T17:46:04.641Z,101926.47
2022-11-14T17:48:32.483Z,101927.34
2022-11-14T17:51:07.744Z,101919.44
2022-11-14T17:53:34.733Z,101923.84
2022-11-14T17:56:01.580Z,101922.06
2022-11-14T17:58:30.019Z,101920.28
2022-11-14T18:00:58.955Z,101913.25
2022-11-14T18:03:26.230Z,101914.97
2022-11-14T18:05:53.429Z,101911.47
2022-11-14T18:08:20.047Z,101909.72
2022-11-14T18:10:46.703Z,101914.09
2022-11-14T18:13:13.283Z,101908.84
2022-11-14T18:15:39.906Z,101913.25
2022-11-14T18:18:06.562Z,101920.28
2022-11-14T18:20:33.197Z,101912.38
2022-11-14T18:22:59.835Z,101909.69
2022-11-14T18:25:26.444Z,101915.00
2022-11-14T18:27:53.132Z,101921.16
2022-11-14T18:30:40.520Z,101907.09
2022-11-14T18:33:06.382Z,101906.22
2022-11-14T18:35:32.942Z,101907.06
2022-11-14T18:37:59.497Z,101905.31
2022-11-14T18:40:26.148Z,101908.84
2022-11-14T18:42:52.762Z,101900.91
2022-11-14T18:45:19.317Z,101900.06
2022-11-14T18:47:45.849Z,101889.53
2022-11-14T18:50:12.668Z,101885.97
2022-11-14T18:52:39.240Z,101885.97
2022-11-14T18:55:07.932Z,101883.31
2022-11-14T18:57:34.500Z,101878.06
2022-11-14T19:00:01.074Z,101878.06
2022-11-14T19:02:27.839Z,101886.00
2022-11-14T19:04:54.452Z,101880.72
2022-11-14T19:07:21.262Z,101870.16
2022-11-14T19:09:47.900Z,101875.44
2022-11-14T19:12:24.012Z,101869.25
2022-11-14T19:14:52.090Z,101869.25
2022-11-14T19:17:21.203Z,101864.00
2022-11-14T19:19:49.641Z,101856.94
2022-11-14T19:22:17.210Z,101851.66
2022-11-14T19:24:46.640Z,101852.56
2022-11-14T19:27:16.118Z,101842.84
2022-11-14T19:29:43.075Z,101845.53
2022-11-14T19:32:09.697Z,101834.06
2022-11-14T19:34:36.321Z,101827.94
2022-11-14T19:37:03.086Z,101820.88
2022-11-14T19:39:30.107Z,101812.94
2022-11-14T19:41:56.862Z,101809.44
2022-11-14T19:44:23.566Z,101815.56
2022-11-14T19:46:50.359Z,101809.44
2022-11-14T19:49:17.013Z,101811.22
2022-11-14T19:51:43.704Z,101811.22
2022-11-14T19:54:11.246Z,101802.44
2022-11-14T19:56:38.041Z,101793.59
2022-11-14T19:59:09.622Z,101793.59
2022-11-14T20:01:42.165Z,101783.03
2022-11-14T20:04:12.349Z,101780.38
2022-11-14T20:06:39.680Z,101786.50
2022-11-14T20:09:08.952Z,101784.72
2022-11-14T20:11:35.606Z,101781.22
2022-11-14T20:14:02.841Z,101774.16
2022-11-14T20:16:32.529Z,101773.28
2022-11-14T20:19:00.651Z,101777.72
2022-11-14T20:21:30.142Z,101769.81
2022-11-14T20:23:57.094Z,101768.03
2022-11-14T20:26:24.567Z,101755.72
2022-11-14T20:28:52.914Z,101754.81
2022-11-14T20:31:28.222Z,101758.34
2022-11-14T20:33:55.830Z,101755.75
2022-11-14T20:36:29.436Z,101754.00
2022-11-14T20:39:02.272Z,101746.09
2022-11-14T20:41:28.878Z,101734.63
2022-11-14T20:43:55.583Z,101723.19
2022-11-14T20:46:22.232Z,101725.81
2022-11-14T20:48:49.620Z,101723.19
2022-11-14T20:51:19.449Z,101719.69
2022-11-14T20:53:46.659Z,101716.16
2022-11-14T20:56:13.943Z,101714.44
2022-11-14T20:58:41.775Z,101717.94
2022-11-14T21:01:08.802Z,101709.16
2022-11-14T21:03:36.287Z,101710.88
2022-11-14T21:06:03.320Z,101711.78
2022-11-14T21:08:30.832Z,101716.19
2022-11-14T21:11:00.461Z,101711.81
2022-11-14T21:13:45.640Z,101712.69
2022-11-14T21:16:14.844Z,101708.31
2022-11-14T21:18:45.202Z,101708.31
2022-11-14T21:21:19.449Z,101698.59
2022-11-14T21:23:47.422Z,101696.84
2022-11-14T21:26:22.299Z,101693.31
2022-11-14T21:28:52.097Z,101688.06
2022-11-14T21:31:26.398Z,101695.13
2022-11-14T21:33:56.678Z,101704.78
2022-11-14T21:39:15.329Z,101711.88
2022-11-14T21:41:43.051Z,101711.00
2022-11-14T21:44:13.424Z,101715.41
2022-11-14T21:46:41.187Z,101718.03
2022-11-14T21:49:08.358Z,101718.94
2022-11-14T21:51:35.103Z,101722.47
2022-11-14T21:54:06.476Z,101726.00
2022-11-14T21:56:34.712Z,101723.38
2022-11-14T21:59:15.761Z,101719.88
2022-11-14T22:02:09.148Z,101715.47
2022-11-14T22:04:37.058Z,101717.22
2022-11-14T22:07:06.700Z,101722.50
2022-11-14T22:09:34.569Z,101714.59
2022-11-14T22:12:01.337Z,101716.34
2022-11-14T22:14:29.300Z,101711.06
2022-11-14T22:16:56.394Z,101713.69
2022-11-14T22:19:23.440Z,101715.44
2022-11-14T22:21:50.399Z,101716.34
2022-11-14T22:24:16.937Z,101711.94
2022-11-14T22:26:43.595Z,101706.66
2022-11-14T22:29:10.297Z,101711.06
2022-11-14T22:31:37.928Z,101709.28
2022-11-14T22:34:04.987Z,101709.28
2022-11-14T22:36:31.904Z,101718.06
2022-11-14T22:38:58.607Z,101711.06
2022-11-14T22:41:32.357Z,101722.50
2022-11-14T22:44:02.425Z,101716.34
2022-11-14T22:46:32.444Z,101711.94
2022-11-14T22:48:59.194Z,101708.38
2022-11-14T22:51:29.486Z,101698.72
2022-11-14T22:53:59.722Z,101704.91
2022-11-14T22:56:28.643Z,101705.81
2022-11-14T22:58:56.297Z,101712.00
2022-11-14T23:01:29.000Z,101711.13
2022-11-14T23:03:57.860Z,101714.63
2022-11-14T23:06:25.606Z,101707.63
2022-11-14T23:08:53.727Z,101705.88
2022-11-14T23:11:23.348Z,101705.06
2022-11-14T23:13:52.884Z,101703.34
2022-11-14T23:16:26.578Z,101700.72
2022-11-14T23:18:58.000Z,101705.97
2022-11-14T23:21:37.438Z,101692.78
2022-11-14T23:24:11.642Z,101694.53
2022-11-14T23:26:38.267Z,101690.19
2022-11-14T23:29:05.151Z,101687.56
2022-11-14T23:31:34.526Z,101685.81
2022-11-14T23:34:01.576Z,101677.03
2022-11-14T23:36:28.192Z,101683.22
2022-11-14T23:38:55.092Z,101668.34
2022-11-14T23:41:25.371Z,101667.47
2022-11-14T23:43:54.197Z,101656.94
2022-11-14T23:46:20.898Z,101669.28
2022-11-14T23:48:47.592Z,101668.41
2022-11-14T23:51:14.150Z,101671.88
2022-11-14T23:53:41.375Z,101677.16
2022-11-14T23:56:13.270Z,101682.44
2022-11-14T23:58:40.488Z,101677.16
